sensor_id;sensor_type;location;lat;lon;timestamp;temperature;humidity
7016;DHT22;3548;48.402;9.990;2023-05-02T00:01:39;9.90;99.90
7016;DHT22;3548;48.402;9.990;2023-05-02T00:04:06;9.90;99.90
7016;DHT22;3548;48.402;9.990;2023-05-02T00:06:31;9.80;99.90
7016;DHT22;3548;48.402;9.990;2023-05-02T00:08:57;9.80;99.90
7016;DHT22;3548;48.402;9.990;2023-05-02T00:11:22;9.70;99.90
7016;DHT22;3548;48.402;9.990;2023-05-02T00:13:49;9.70;99.90
7016;DHT22;3548;48.402;9.990;2023-05-02T00:16:14;9.70;99.90
7016;DHT22;3548;48.402;9.990;2023-05-02T00:18:40;9.70;99.90
7016;DHT22;3548;48.402;9.990;2023-05-02T00:21:06;9.60;99.90
7016;DHT22;3548;48.402;9.990;2023-05-02T00:23:32;9.60;99.90
7016;DHT22;3548;48.402;9.990;2023-05-02T00:25:58;9.60;99.90
7016;DHT22;3548;48.402;9.990;2023-05-02T00:28:23;9.60;99.90
7016;DHT22;3548;48.402;9.990;2023-05-02T00:30:50;9.60;99.90
7016;DHT22;3548;48.402;9.990;2023-05-02T00:33:16;9.60;99.90
7016;DHT22;3548;48.402;9.990;2023-05-02T00:35:41;9.50;99.90
7016;DHT22;3548;48.402;9.990;2023-05-02T00:38:07;9.50;99.90
7016;DHT22;3548;48.402;9.990;2023-05-02T00:40:47;9.40;99.90
7016;DHT22;3548;48.402;9.990;2023-05-02T00:43:13;9.50;99.90
7016;DHT22;3548;48.402;9.990;2023-05-02T00:45:40;9.40;99.90
7016;DHT22;3548;48.402;9.990;2023-05-02T00:48:07;9.40;99.90
7016;DHT22;3548;48.402;9.990;2023-05-02T00:50:36;9.30;99.90
7016;DHT22;3548;48.402;9.990;2023-05-02T00:53:03;9.30;99.90
7016;DHT22;3548;48.402;9.990;2023-05-02T00:55:30;9.20;99.90
7016;DHT22;3548;48.402;9.990;2023-05-02T00:57:55;9.20;99.90
7016;DHT22;3548;48.402;9.990;2023-05-02T01:00:22;9.20;99.90
7016;DHT22;3548;48.402;9.990;2023-05-02T01:03:00;9.20;99.90
7016;DHT22;3548;48.402;9.990;2023-05-02T01:05:43;9.20;99.90
7016;DHT22;3548;48.402;9.990;2023-05-02T01:13:32;9.20;99.90
7016;DHT22;3548;48.402;9.990;2023-05-02T01:15:58;9.20;99.90
7016;DHT22;3548;48.402;9.990;2023-05-02T01:18:29;9.20;99.90
7016;DHT22;3548;48.402;9.990;2023-05-02T01:21:22;9.20;99.90
7016;DHT22;3548;48.402;9.990;2023-05-02T01:23:59;9.20;99.90
7016;DHT22;3548;48.402;9.990;2023-05-02T01:26:46;9.20;99.90
7016;DHT22;3548;48.402;9.990;2023-05-02T01:29:15;9.10;99.90
7016;DHT22;3548;48.402;9.990;2023-05-02T01:31:44;9.10;99.90
7016;DHT22;3548;48.402;9.990;2023-05-02T01:34:11;9.10;99.90
7016;DHT22;3548;48.402;9.990;2023-05-02T01:36:47;9.10;99.90
7016;DHT22;3548;48.402;9.990;2023-05-02T01:39:20;9.10;99.90
7016;DHT22;3548;48.402;9.990;2023-05-02T01:41:48;9.10;99.90
7016;DHT22;3548;48.402;9.990;2023-05-02T01:44:16;9.10;99.90
7016;DHT22;3548;48.402;9.990;2023-05-02T01:46:43;9.00;99.90
7016;DHT22;3548;48.402;9.990;2023-05-02T01:49:09;9.00;99.90
7016;DHT22;3548;48.402;9.990;2023-05-02T01:51:42;9.00;99.90
7016;DHT22;3548;48.402;9.990;2023-05-02T01:54:09;9.00;99.90
7016;DHT22;3548;48.402;9.990;2023-05-02T01:56:38;9.00;99.90
7016;DHT22;3548;48.402;9.990;2023-05-02T01:59:09;9.00;99.90
7016;DHT22;3548;48.402;9.990;2023-05-02T02:01:37;9.00;99.90
7016;DHT22;3548;48.402;9.990;2023-05-02T02:04:04;9.00;99.90
7016;DHT22;3548;48.402;9.990;2023-05-02T02:06:31;8.90;99.90
7016;DHT22;3548;48.402;9.990;2023-05-02T02:08:56;8.90;99.90
7016;DHT22;3548;48.402;9.990;2023-05-02T02:11:28;8.90;99.90
7016;DHT22;3548;48.402;9.990;2023-05-02T02:14:13;8.90;99.90
7016;DHT22;3548;48.402;9.990;2023-05-02T02:16:41;8.80;99.90
7016;DHT22;3548;48.402;9.990;2023-05-02T02:19:09;8.80;99.90
7016;DHT22;3548;48.402;9.990;2023-05-02T02:21:38;8.80;99.90
7016;DHT22;3548;48.402;9.990;2023-05-02T02:24:05;8.70;99.90
7016;DHT22;3548;48.402;9.990;2023-05-02T02:26:32;8.70;99.90
7016;DHT22;3548;48.402;9.990;2023-05-02T02:29:00;8.70;99.90
7016;DHT22;3548;48.402;9.990;2023-05-02T02:31:33;8.60;99.90
7016;DHT22;3548;48.402;9.990;2023-05-02T02:34:00;8.60;99.90
7016;DHT22;3548;48.402;9.990;2023-05-02T02:36:33;8.60;99.90
7016;DHT22;3548;48.402;9.990;2023-05-02T02:39:24;8.60;99.90
7016;DHT22;3548;48.402;9.990;2023-05-02T02:42:18;8.50;99.90
7016;DHT22;3548;48.402;9.990;2023-05-02T02:47:41;8.50;99.90
7016;DHT22;3548;48.402;9.990;2023-05-02T02:50:29;8.40;99.90
7016;DHT22;3548;48.402;9.990;2023-05-02T02:53:09;8.40;99.90
7016;DHT22;3548;48.402;9.990;2023-05-02T02:55:46;8.40;99.90
7016;DHT22;3548;48.402;9.990;2023-05-02T03:00:52;8.40;99.90
7016;DHT22;3548;48.402;9.990;2023-05-02T03:03:19;8.30;99.90
7016;DHT22;3548;48.402;9.990;2023-05-02T03:05:47;8.30;99.90
7016;DHT22;3548;48.402;9.990;2023-05-02T03:08:13;8.30;99.90
7016;DHT22;3548;48.402;9.990;2023-05-02T03:10:38;8.30;99.90
7016;DHT22;3548;48.402;9.990;2023-05-02T03:13:04;8.30;99.90
7016;DHT22;3548;48.402;9.990;2023-05-02T03:18:23;8.20;99.90
7016;DHT22;3548;48.402;9.990;2023-05-02T03:20:48;8.20;99.90
7016;DHT22;3548;48.402;9.990;2023-05-02T03:23:14;8.20;99.90
7016;DHT22;3548;48.402;9.990;2023-05-02T03:25:39;8.10;99.90
7016;DHT22;3548;48.402;9.990;2023-05-02T03:28:05;8.10;99.90
7016;DHT22;3548;48.402;9.990;2023-05-02T03:30:31;8.10;99.90
7016;DHT22;3548;48.402;9.990;2023-05-02T03:32:56;8.00;99.90
7016;DHT22;3548;48.402;9.990;2023-05-02T03:35:22;8.00;99.90
7016;DHT22;3548;48.402;9.990;2023-05-02T03:37:48;8.00;99.90
7016;DHT22;3548;48.402;9.990;2023-05-02T03:40:13;8.00;99.90
7016;DHT22;3548;48.402;9.990;2023-05-02T03:42:40;8.00;99.90
7016;DHT22;3548;48.402;9.990;2023-05-02T03:45:07;7.90;99.90
7016;DHT22;3548;48.402;9.990;2023-05-02T03:47:33;7.90;99.90
7016;DHT22;3548;48.402;9.990;2023-05-02T03:49:58;7.90;99.90
7016;DHT22;3548;48.402;9.990;2023-05-02T03:52:25;7.90;99.90
7016;DHT22;3548;48.402;9.990;2023-05-02T03:54:50;7.80;99.90
7016;DHT22;3548;48.402;9.990;2023-05-02T03:57:17;7.80;99.90
7016;DHT22;3548;48.402;9.990;2023-05-02T03:59:42;7.80;99.90
7016;DHT22;3548;48.402;9.990;2023-05-02T04:02:10;7.80;99.90
7016;DHT22;3548;48.402;9.990;2023-05-02T04:04:36;7.80;99.90
7016;DHT22;3548;48.402;9.990;2023-05-02T04:07:02;7.80;99.90
7016;DHT22;3548;48.402;9.990;2023-05-02T04:09:28;7.90;99.90
7016;DHT22;3548;48.402;9.990;2023-05-02T04:11:53;7.90;99.90
7016;DHT22;3548;48.402;9.990;2023-05-02T04:14:19;7.90;99.90
7016;DHT22;3548;48.402;9.990;2023-05-02T04:16:48;8.00;99.90
7016;DHT22;3548;48.402;9.990;2023-05-02T04:19:14;8.00;99.90
7016;DHT22;3548;48.402;9.990;2023-05-02T04:21:40;8.00;99.90
7016;DHT22;3548;48.402;9.990;2023-05-02T04:24:08;8.00;99.90
7016;DHT22;3548;48.402;9.990;2023-05-02T04:26:34;8.00;99.90
7016;DHT22;3548;48.402;9.990;2023-05-02T04:29:00;7.90;99.90
7016;DHT22;3548;48.402;9.990;2023-05-02T04:31:25;7.90;99.90
7016;DHT22;3548;48.402;9.990;2023-05-02T04:33:51;7.90;99.90
7016;DHT22;3548;48.402;9.990;2023-05-02T04:36:17;7.90;99.90
7016;DHT22;3548;48.402;9.990;2023-05-02T04:38:43;7.90;99.90
7016;DHT22;3548;48.402;9.990;2023-05-02T04:41:09;7.90;99.90
7016;DHT22;3548;48.402;9.990;2023-05-02T04:43:35;7.90;99.90
7016;DHT22;3548;48.402;9.990;2023-05-02T04:46:00;7.90;99.90
7016;DHT22;3548;48.402;9.990;2023-05-02T04:48:26;7.80;99.90
7016;DHT22;3548;48.402;9.990;2023-05-02T04:50:52;7.90;99.90
7016;DHT22;3548;48.402;9.990;2023-05-02T04:53:23;7.90;99.90
7016;DHT22;3548;48.402;9.990;2023-05-02T04:55:48;7.90;99.90
7016;DHT22;3548;48.402;9.990;2023-05-02T04:58:14;8.00;99.90
7016;DHT22;3548;48.402;9.990;2023-05-02T05:00:40;8.10;99.90
7016;DHT22;3548;48.402;9.990;2023-05-02T05:03:05;8.20;99.90
7016;DHT22;3548;48.402;9.990;2023-05-02T05:05:31;8.30;99.90
7016;DHT22;3548;48.402;9.990;2023-05-02T05:07:57;8.40;99.90
7016;DHT22;3548;48.402;9.990;2023-05-02T05:10:23;8.50;99.90
7016;DHT22;3548;48.402;9.990;2023-05-02T05:12:48;8.50;99.90
7016;DHT22;3548;48.402;9.990;2023-05-02T05:15:14;8.60;99.90
7016;DHT22;3548;48.402;9.990;2023-05-02T05:17:40;8.70;99.90
7016;DHT22;3548;48.402;9.990;2023-05-02T05:20:07;8.80;99.90
7016;DHT22;3548;48.402;9.990;2023-05-02T05:22:39;8.80;99.90
7016;DHT22;3548;48.402;9.990;2023-05-02T05:25:06;9.00;99.90
7016;DHT22;3548;48.402;9.990;2023-05-02T05:27:33;9.00;99.90
7016;DHT22;3548;48.402;9.990;2023-05-02T05:29:58;9.10;99.90
7016;DHT22;3548;48.402;9.990;2023-05-02T05:32:24;9.20;99.90
7016;DHT22;3548;48.402;9.990;2023-05-02T05:34:53;9.20;99.90
7016;DHT22;3548;48.402;9.990;2023-05-02T05:37:19;9.30;99.90
7016;DHT22;3548;48.402;9.990;2023-05-02T05:39:46;9.40;99.90
7016;DHT22;3548;48.402;9.990;2023-05-02T05:42:12;9.40;99.90
7016;DHT22;3548;48.402;9.990;2023-05-02T05:44:37;9.50;99.90
7016;DHT22;3548;48.402;9.990;2023-05-02T05:47:03;9.60;99.90
7016;DHT22;3548;48.402;9.990;2023-05-02T05:49:29;9.70;99.90
7016;DHT22;3548;48.402;9.990;2023-05-02T05:51:54;9.80;99.90
7016;DHT22;3548;48.402;9.990;2023-05-02T05:54:20;9.90;99.90
7016;DHT22;3548;48.402;9.990;2023-05-02T05:56:46;10.00;99.90
7016;DHT22;3548;48.402;9.990;2023-05-02T05:59:12;10.20;99.90
7016;DHT22;3548;48.402;9.990;2023-05-02T06:01:38;10.40;99.90
7016;DHT22;3548;48.402;9.990;2023-05-02T06:04:04;10.50;99.90
7016;DHT22;3548;48.402;9.990;2023-05-02T06:06:30;10.70;99.90
7016;DHT22;3548;48.402;9.990;2023-05-02T06:08:58;10.80;99.90
7016;DHT22;3548;48.402;9.990;2023-05-02T06:11:24;10.90;99.90
7016;DHT22;3548;48.402;9.990;2023-05-02T06:13:51;11.00;99.90
7016;DHT22;3548;48.402;9.990;2023-05-02T06:16:17;11.10;99.90
7016;DHT22;3548;48.402;9.990;2023-05-02T06:18:43;11.10;99.90
7016;DHT22;3548;48.402;9.990;2023-05-02T06:21:09;11.20;99.90
7016;DHT22;3548;48.402;9.990;2023-05-02T06:23:35;11.30;99.90
7016;DHT22;3548;48.402;9.990;2023-05-02T06:26:02;11.40;99.90
7016;DHT22;3548;48.402;9.990;2023-05-02T06:28:29;11.50;99.90
7016;DHT22;3548;48.402;9.990;2023-05-02T06:30:58;11.50;99.90
7016;DHT22;3548;48.402;9.990;2023-05-02T06:33:24;11.50;99.90
7016;DHT22;3548;48.402;9.990;2023-05-02T06:35:52;11.50;99.90
7016;DHT22;3548;48.402;9.990;2023-05-02T06:38:18;11.60;99.90
7016;DHT22;3548;48.402;9.990;2023-05-02T06:40:44;11.70;99.90
7016;DHT22;3548;48.402;9.990;2023-05-02T06:43:10;11.80;99.90
7016;DHT22;3548;48.402;9.990;2023-05-02T06:45:36;12.00;99.90
7016;DHT22;3548;48.402;9.990;2023-05-02T06:48:02;12.10;99.90
7016;DHT22;3548;48.402;9.990;2023-05-02T06:50:28;12.20;99.90
7016;DHT22;3548;48.402;9.990;2023-05-02T06:52:54;12.30;99.90
7016;DHT22;3548;48.402;9.990;2023-05-02T06:55:20;12.50;99.90
7016;DHT22;3548;48.402;9.990;2023-05-02T06:57:45;12.60;99.90
7016;DHT22;3548;48.402;9.990;2023-05-02T07:00:12;12.70;99.90
7016;DHT22;3548;48.402;9.990;2023-05-02T07:02:37;12.90;99.90
7016;DHT22;3548;48.402;9.990;2023-05-02T07:05:03;13.10;99.90
7016;DHT22;3548;48.402;9.990;2023-05-02T07:07:29;13.20;99.90
7016;DHT22;3548;48.402;9.990;2023-05-02T07:09:54;13.20;99.90
7016;DHT22;3548;48.402;9.990;2023-05-02T07:12:20;13.20;99.90
7016;DHT22;3548;48.402;9.990;2023-05-02T07:14:46;13.30;99.90
7016;DHT22;3548;48.402;9.990;2023-05-02T07:17:12;13.40;99.90
7016;DHT22;3548;48.402;9.990;2023-05-02T07:19:37;13.40;99.90
7016;DHT22;3548;48.402;9.990;2023-05-02T07:22:03;13.40;99.90
7016;DHT22;3548;48.402;9.990;2023-05-02T07:24:28;13.50;99.90
7016;DHT22;3548;48.402;9.990;2023-05-02T07:26:54;13.40;99.90
7016;DHT22;3548;48.402;9.990;2023-05-02T07:29:20;13.40;99.90
7016;DHT22;3548;48.402;9.990;2023-05-02T07:31:45;13.40;99.90
7016;DHT22;3548;48.402;9.990;2023-05-02T07:34:11;13.40;99.90
7016;DHT22;3548;48.402;9.990;2023-05-02T07:36:36;13.30;99.90
7016;DHT22;3548;48.402;9.990;2023-05-02T07:39:02;13.30;99.90
7016;DHT22;3548;48.402;9.990;2023-05-02T07:41:27;13.40;99.90
7016;DHT22;3548;48.402;9.990;2023-05-02T07:43:53;13.40;99.90
7016;DHT22;3548;48.402;9.990;2023-05-02T07:46:18;13.40;99.90
7016;DHT22;3548;48.402;9.990;2023-05-02T07:48:44;13.40;99.90
7016;DHT22;3548;48.402;9.990;2023-05-02T07:51:10;13.40;99.90
7016;DHT22;3548;48.402;9.990;2023-05-02T07:53:35;13.30;99.90
7016;DHT22;3548;48.402;9.990;2023-05-02T07:56:04;13.40;99.90
7016;DHT22;3548;48.402;9.990;2023-05-02T07:58:36;13.40;99.90
7016;DHT22;3548;48.402;9.990;2023-05-02T08:01:02;13.40;99.90
7016;DHT22;3548;48.402;9.990;2023-05-02T08:03:28;13.30;99.90
7016;DHT22;3548;48.402;9.990;2023-05-02T08:05:54;13.20;99.90
7016;DHT22;3548;48.402;9.990;2023-05-02T08:08:20;13.20;99.90
7016;DHT22;3548;48.402;9.990;2023-05-02T08:10:45;13.20;99.90
7016;DHT22;3548;48.402;9.990;2023-05-02T08:13:11;13.10;99.90
7016;DHT22;3548;48.402;9.990;2023-05-02T08:15:37;13.10;99.90
7016;DHT22;3548;48.402;9.990;2023-05-02T08:18:02;13.00;99.90
7016;DHT22;3548;48.402;9.990;2023-05-02T08:20:28;12.90;99.90
7016;DHT22;3548;48.402;9.990;2023-05-02T08:22:53;12.80;99.90
7016;DHT22;3548;48.402;9.990;2023-05-02T08:25:19;12.80;99.90
7016;DHT22;3548;48.402;9.990;2023-05-02T08:27:45;12.70;99.90
7016;DHT22;3548;48.402;9.990;2023-05-02T08:30:11;12.80;99.90
7016;DHT22;3548;48.402;9.990;2023-05-02T08:32:37;12.80;99.90
7016;DHT22;3548;48.402;9.990;2023-05-02T08:35:02;12.90;99.90
7016;DHT22;3548;48.402;9.990;2023-05-02T08:37:28;13.00;99.90
7016;DHT22;3548;48.402;9.990;2023-05-02T08:39:53;13.10;99.90
7016;DHT22;3548;48.402;9.990;2023-05-02T08:42:19;13.20;99.90
7016;DHT22;3548;48.402;9.990;2023-05-02T08:44:47;13.20;99.90
7016;DHT22;3548;48.402;9.990;2023-05-02T08:47:14;13.30;99.90
7016;DHT22;3548;48.402;9.990;2023-05-02T08:49:41;13.40;99.90
7016;DHT22;3548;48.402;9.990;2023-05-02T08:52:08;13.50;99.90
7016;DHT22;3548;48.402;9.990;2023-05-02T08:54:36;13.60;99.90
7016;DHT22;3548;48.402;9.990;2023-05-02T08:57:03;13.70;99.90
7016;DHT22;3548;48.402;9.990;2023-05-02T08:59:29;13.80;99.90
7016;DHT22;3548;48.402;9.990;2023-05-02T09:02:11;13.80;99.90
7016;DHT22;3548;48.402;9.990;2023-05-02T09:04:40;13.70;99.90
7016;DHT22;3548;48.402;9.990;2023-05-02T09:07:06;13.80;99.90
7016;DHT22;3548;48.402;9.990;2023-05-02T09:09:33;13.70;99.90
7016;DHT22;3548;48.402;9.990;2023-05-02T09:11:58;13.70;99.90
7016;DHT22;3548;48.402;9.990;2023-05-02T09:14:24;13.90;99.90
7016;DHT22;3548;48.402;9.990;2023-05-02T09:16:57;14.10;99.90
7016;DHT22;3548;48.402;9.990;2023-05-02T09:19:24;14.30;99.90
7016;DHT22;3548;48.402;9.990;2023-05-02T09:21:59;14.50;99.90
7016;DHT22;3548;48.402;9.990;2023-05-02T09:24:25;14.60;99.90
7016;DHT22;3548;48.402;9.990;2023-05-02T09:27:02;14.50;99.90
7016;DHT22;3548;48.402;9.990;2023-05-02T09:29:28;14.40;99.90
7016;DHT22;3548;48.402;9.990;2023-05-02T09:32:04;14.30;99.90
7016;DHT22;3548;48.402;9.990;2023-05-02T09:34:30;14.20;99.90
7016;DHT22;3548;48.402;9.990;2023-05-02T09:36:56;14.20;99.90
7016;DHT22;3548;48.402;9.990;2023-05-02T09:39:26;14.30;99.90
7016;DHT22;3548;48.402;9.990;2023-05-02T09:41:56;14.40;99.90
7016;DHT22;3548;48.402;9.990;2023-05-02T09:44:24;14.40;99.90
7016;DHT22;3548;48.402;9.990;2023-05-02T09:46:51;14.60;99.90
7016;DHT22;3548;48.402;9.990;2023-05-02T09:49:17;14.90;99.90
7016;DHT22;3548;48.402;9.990;2023-05-02T09:51:44;15.20;99.90
7016;DHT22;3548;48.402;9.990;2023-05-02T09:54:11;15.30;99.90
7016;DHT22;3548;48.402;9.990;2023-05-02T09:56:56;15.30;99.90
7016;DHT22;3548;48.402;9.990;2023-05-02T09:59:22;15.50;99.90
7016;DHT22;3548;48.402;9.990;2023-05-02T10:02:01;15.60;99.90
7016;DHT22;3548;48.402;9.990;2023-05-02T10:04:29;15.60;99.90
7016;DHT22;3548;48.402;9.990;2023-05-02T10:06:55;15.70;99.90
7016;DHT22;3548;48.402;9.990;2023-05-02T10:09:21;15.70;99.90
7016;DHT22;3548;48.402;9.990;2023-05-02T10:11:53;15.80;99.90
7016;DHT22;3548;48.402;9.990;2023-05-02T10:14:21;15.40;99.90
7016;DHT22;3548;48.402;9.990;2023-05-02T10:17:11;15.50;99.90
7016;DHT22;3548;48.402;9.990;2023-05-02T10:20:00;15.50;99.90
7016;DHT22;3548;48.402;9.990;2023-05-02T10:22:28;15.50;99.90
7016;DHT22;3548;48.402;9.990;2023-05-02T10:24:57;15.50;99.90
7016;DHT22;3548;48.402;9.990;2023-05-02T10:27:24;15.60;99.90
7016;DHT22;3548;48.402;9.990;2023-05-02T10:29:50;15.70;99.90
7016;DHT22;3548;48.402;9.990;2023-05-02T10:32:17;15.70;99.90
7016;DHT22;3548;48.402;9.990;2023-05-02T10:34:43;15.70;99.90
7016;DHT22;3548;48.402;9.990;2023-05-02T10:37:08;15.70;99.90
7016;DHT22;3548;48.402;9.990;2023-05-02T10:39:34;15.80;99.90
7016;DHT22;3548;48.402;9.990;2023-05-02T10:42:01;15.80;99.90
7016;DHT22;3548;48.402;9.990;2023-05-02T10:44:34;15.90;99.90
7016;DHT22;3548;48.402;9.990;2023-05-02T10:47:01;15.90;99.90
7016;DHT22;3548;48.402;9.990;2023-05-02T10:49:56;15.90;99.90
7016;DHT22;3548;48.402;9.990;2023-05-02T10:52:33;16.00;99.90
7016;DHT22;3548;48.402;9.990;2023-05-02T10:55:19;16.20;99.90
7016;DHT22;3548;48.402;9.990;2023-05-02T11:00:33;16.30;99.90
7016;DHT22;3548;48.402;9.990;2023-05-02T11:02:59;16.30;99.90
7016;DHT22;3548;48.402;9.990;2023-05-02T11:05:25;16.30;99.90
7016;DHT22;3548;48.402;9.990;2023-05-02T11:10:45;16.60;99.90
7016;DHT22;3548;48.402;9.990;2023-05-02T11:13:10;16.70;99.90
7016;DHT22;3548;48.402;9.990;2023-05-02T11:18:08;17.00;99.90
7016;DHT22;3548;48.402;9.990;2023-05-02T11:20:35;17.20;99.90
7016;DHT22;3548;48.402;9.990;2023-05-02T11:33:58;17.50;99.10
7016;DHT22;3548;48.402;9.990;2023-05-02T11:36:31;17.60;98.20
7016;DHT22;3548;48.402;9.990;2023-05-02T11:39:00;17.40;98.00
7016;DHT22;3548;48.402;9.990;2023-05-02T11:41:40;17.30;98.10
7016;DHT22;3548;48.402;9.990;2023-05-02T11:44:06;17.20;98.10
7016;DHT22;3548;48.402;9.990;2023-05-02T11:46:31;17.30;98.60
7016;DHT22;3548;48.402;9.990;2023-05-02T11:48:58;17.60;98.00
7016;DHT22;3548;48.402;9.990;2023-05-02T11:51:23;18.00;97.60
7016;DHT22;3548;48.402;9.990;2023-05-02T11:53:49;18.10;96.40
7016;DHT22;3548;48.402;9.990;2023-05-02T11:56:22;17.90;96.60
7016;DHT22;3548;48.402;9.990;2023-05-02T11:58:57;17.60;97.10
7016;DHT22;3548;48.402;9.990;2023-05-02T12:01:24;17.20;96.20
7016;DHT22;3548;48.402;9.990;2023-05-02T12:03:50;17.00;97.00
7016;DHT22;3548;48.402;9.990;2023-05-02T12:06:25;16.70;98.30
7016;DHT22;3548;48.402;9.990;2023-05-02T12:09:08;16.40;99.10
7016;DHT22;3548;48.402;9.990;2023-05-02T12:11:35;16.20;99.90
7016;DHT22;3548;48.402;9.990;2023-05-02T12:14:02;15.90;99.90
7016;DHT22;3548;48.402;9.990;2023-05-02T12:16:28;15.80;99.90
7016;DHT22;3548;48.402;9.990;2023-05-02T12:18:54;15.60;99.90
7016;DHT22;3548;48.402;9.990;2023-05-02T12:21:22;15.70;99.90
7016;DHT22;3548;48.402;9.990;2023-05-02T12:23:48;15.80;99.90
7016;DHT22;3548;48.402;9.990;2023-05-02T12:26:21;15.80;99.90
7016;DHT22;3548;48.402;9.990;2023-05-02T12:28:52;16.00;99.90
7016;DHT22;3548;48.402;9.990;2023-05-02T12:31:22;16.20;99.90
7016;DHT22;3548;48.402;9.990;2023-05-02T12:33:48;16.50;99.90
7016;DHT22;3548;48.402;9.990;2023-05-02T12:36:15;16.70;98.90
7016;DHT22;3548;48.402;9.990;2023-05-02T12:39:07;16.60;98.80
7016;DHT22;3548;48.402;9.990;2023-05-02T12:41:37;16.80;98.90
7016;DHT22;3548;48.402;9.990;2023-05-02T12:44:05;17.00;98.10
7016;DHT22;3548;48.402;9.990;2023-05-02T12:46:31;17.00;98.40
7016;DHT22;3548;48.402;9.990;2023-05-02T12:49:07;16.90;98.80
7016;DHT22;3548;48.402;9.990;2023-05-02T12:51:34;16.80;98.50
7016;DHT22;3548;48.402;9.990;2023-05-02T12:54:01;16.90;98.20
7016;DHT22;3548;48.402;9.990;2023-05-02T12:56:26;17.00;97.90
7016;DHT22;3548;48.402;9.990;2023-05-02T12:58:59;16.80;97.70
7016;DHT22;3548;48.402;9.990;2023-05-02T13:01:29;16.60;98.40
7016;DHT22;3548;48.402;9.990;2023-05-02T13:03:56;16.60;98.50
7016;DHT22;3548;48.402;9.990;2023-05-02T13:06:22;16.70;99.00
7016;DHT22;3548;48.402;9.990;2023-05-02T13:08:48;16.80;98.90
7016;DHT22;3548;48.402;9.990;2023-05-02T13:11:13;16.90;98.30
7016;DHT22;3548;48.402;9.990;2023-05-02T13:13:39;17.00;98.10
7016;DHT22;3548;48.402;9.990;2023-05-02T13:16:06;17.10;97.80
7016;DHT22;3548;48.402;9.990;2023-05-02T13:18:32;17.10;97.80
7016;DHT22;3548;48.402;9.990;2023-05-02T13:20:57;17.30;98.10
7016;DHT22;3548;48.402;9.990;2023-05-02T13:23:23;17.50;97.80
7016;DHT22;3548;48.402;9.990;2023-05-02T13:25:48;17.50;97.50
7016;DHT22;3548;48.402;9.990;2023-05-02T13:28:14;17.60;97.20
7016;DHT22;3548;48.402;9.990;2023-05-02T13:30:39;17.70;97.20
7016;DHT22;3548;48.402;9.990;2023-05-02T13:33:05;17.80;97.10
7016;DHT22;3548;48.402;9.990;2023-05-02T13:35:31;17.70;96.90
7016;DHT22;3548;48.402;9.990;2023-05-02T13:37:56;17.90;97.50
7016;DHT22;3548;48.402;9.990;2023-05-02T13:40:22;18.20;97.50
7016;DHT22;3548;48.402;9.990;2023-05-02T13:42:47;18.30;96.90
7016;DHT22;3548;48.402;9.990;2023-05-02T13:45:13;18.20;96.70
7016;DHT22;3548;48.402;9.990;2023-05-02T13:47:38;18.20;97.20
7016;DHT22;3548;48.402;9.990;2023-05-02T13:50:04;17.90;95.90
7016;DHT22;3548;48.402;9.990;2023-05-02T13:52:30;17.50;96.30
7016;DHT22;3548;48.402;9.990;2023-05-02T13:54:56;17.20;96.30
7016;DHT22;3548;48.402;9.990;2023-05-02T13:57:21;17.00;96.50
7016;DHT22;3548;48.402;9.990;2023-05-02T13:59:47;16.90;96.70
7016;DHT22;3548;48.402;9.990;2023-05-02T14:02:12;16.80;97.10
7016;DHT22;3548;48.402;9.990;2023-05-02T14:04:38;16.60;97.10
7016;DHT22;3548;48.402;9.990;2023-05-02T14:07:03;16.50;97.40
7016;DHT22;3548;48.402;9.990;2023-05-02T14:09:29;16.50;96.20
7016;DHT22;3548;48.402;9.990;2023-05-02T14:11:55;16.40;97.00
7016;DHT22;3548;48.402;9.990;2023-05-02T14:14:22;16.50;96.30
7016;DHT22;3548;48.402;9.990;2023-05-02T14:16:47;16.50;96.60
7016;DHT22;3548;48.402;9.990;2023-05-02T14:19:13;16.40;96.70
7016;DHT22;3548;48.402;9.990;2023-05-02T14:21:39;16.30;97.00
7016;DHT22;3548;48.402;9.990;2023-05-02T14:24:05;16.30;97.40
7016;DHT22;3548;48.402;9.990;2023-05-02T14:26:31;16.10;97.10
7016;DHT22;3548;48.402;9.990;2023-05-02T14:28:57;16.00;97.20
7016;DHT22;3548;48.402;9.990;2023-05-02T14:31:23;16.00;96.90
7016;DHT22;3548;48.402;9.990;2023-05-02T14:33:49;16.00;97.10
7016;DHT22;3548;48.402;9.990;2023-05-02T14:36:15;16.10;97.20
7016;DHT22;3548;48.402;9.990;2023-05-02T14:38:40;16.20;96.40
7016;DHT22;3548;48.402;9.990;2023-05-02T14:41:06;16.30;96.40
7016;DHT22;3548;48.402;9.990;2023-05-02T14:43:31;16.40;96.00
7016;DHT22;3548;48.402;9.990;2023-05-02T14:45:57;16.30;95.90
7016;DHT22;3548;48.402;9.990;2023-05-02T14:48:23;16.30;96.20
7016;DHT22;3548;48.402;9.990;2023-05-02T14:50:49;16.10;96.30
7016;DHT22;3548;48.402;9.990;2023-05-02T14:53:14;16.00;96.50
7016;DHT22;3548;48.402;9.990;2023-05-02T14:55:40;16.10;96.50
7016;DHT22;3548;48.402;9.990;2023-05-02T14:58:06;16.20;96.60
7016;DHT22;3548;48.402;9.990;2023-05-02T15:00:37;16.40;96.60
7016;DHT22;3548;48.402;9.990;2023-05-02T15:03:04;16.50;96.10
7016;DHT22;3548;48.402;9.990;2023-05-02T15:05:29;16.60;95.80
7016;DHT22;3548;48.402;9.990;2023-05-02T15:07:55;16.60;96.00
7016;DHT22;3548;48.402;9.990;2023-05-02T15:10:21;16.60;96.40
7016;DHT22;3548;48.402;9.990;2023-05-02T15:12:46;16.60;96.30
7016;DHT22;3548;48.402;9.990;2023-05-02T15:15:18;16.70;96.20
7016;DHT22;3548;48.402;9.990;2023-05-02T15:17:49;16.60;94.70
7016;DHT22;3548;48.402;9.990;2023-05-02T15:20:14;16.30;95.20
7016;DHT22;3548;48.402;9.990;2023-05-02T15:22:40;16.20;95.80
7016;DHT22;3548;48.402;9.990;2023-05-02T15:25:06;16.20;95.60
7016;DHT22;3548;48.402;9.990;2023-05-02T15:27:31;16.10;95.40
7016;DHT22;3548;48.402;9.990;2023-05-02T15:29:57;16.00;95.40
7016;DHT22;3548;48.402;9.990;2023-05-02T15:32:23;16.00;94.60
7016;DHT22;3548;48.402;9.990;2023-05-02T15:34:48;15.90;94.70
7016;DHT22;3548;48.402;9.990;2023-05-02T15:37:14;15.90;95.20
7016;DHT22;3548;48.402;9.990;2023-05-02T15:39:39;15.90;95.50
7016;DHT22;3548;48.402;9.990;2023-05-02T15:42:05;16.00;95.70
7016;DHT22;3548;48.402;9.990;2023-05-02T15:44:34;16.10;95.70
7016;DHT22;3548;48.402;9.990;2023-05-02T15:47:03;16.20;95.40
7016;DHT22;3548;48.402;9.990;2023-05-02T15:49:29;16.20;95.00
7016;DHT22;3548;48.402;9.990;2023-05-02T15:51:58;16.20;95.30
7016;DHT22;3548;48.402;9.990;2023-05-02T15:54:24;16.10;94.90
7016;DHT22;3548;48.402;9.990;2023-05-02T15:56:49;16.10;95.40
7016;DHT22;3548;48.402;9.990;2023-05-02T15:59:15;16.10;95.70
7016;DHT22;3548;48.402;9.990;2023-05-02T16:01:41;16.10;95.20
7016;DHT22;3548;48.402;9.990;2023-05-02T16:04:06;16.20;94.70
7016;DHT22;3548;48.402;9.990;2023-05-02T16:06:34;16.20;94.60
7016;DHT22;3548;48.402;9.990;2023-05-02T16:09:00;16.20;94.70
7016;DHT22;3548;48.402;9.990;2023-05-02T16:11:26;16.30;93.90
7016;DHT22;3548;48.402;9.990;2023-05-02T16:13:52;16.30;93.30
7016;DHT22;3548;48.402;9.990;2023-05-02T16:16:17;16.30;93.60
7016;DHT22;3548;48.402;9.990;2023-05-02T16:18:43;16.30;93.50
7016;DHT22;3548;48.402;9.990;2023-05-02T16:21:08;16.40;93.20
7016;DHT22;3548;48.402;9.990;2023-05-02T16:23:34;16.30;93.10
7016;DHT22;3548;48.402;9.990;2023-05-02T16:25:59;16.30;93.40
7016;DHT22;3548;48.402;9.990;2023-05-02T16:28:26;16.20;93.50
7016;DHT22;3548;48.402;9.990;2023-05-02T16:30:51;16.20;93.80
7016;DHT22;3548;48.402;9.990;2023-05-02T16:33:17;16.30;94.00
7016;DHT22;3548;48.402;9.990;2023-05-02T16:35:42;16.30;94.30
7016;DHT22;3548;48.402;9.990;2023-05-02T16:38:08;16.30;94.40
7016;DHT22;3548;48.402;9.990;2023-05-02T16:40:33;16.40;94.40
7016;DHT22;3548;48.402;9.990;2023-05-02T16:42:59;16.60;94.60